EXS93HQ LTBS-EGHH
Flight info
| Callsign | EXS93HQ |
|---|---|
| Flight time | 4h 10m |
| Altitude | 39800 |
| Route | KEKIK N127 UFQUM UN127 LMO UN128 PEREN DCT DISOR DCT LONTA UL608 DOLEV DCT PODOB DCT LIKVI DCT MONID DCT SABAD DCT RIFEN DCT VESAL DCT SAFFA DCT ELMUR DCT RIPUS DCT DITON DCT HOC DCT LUL DCT RLP DCT ROTSI DCT KOTUN DCT NIDUV DCT SOSUN DCT SUBIP UM8 ELDAX |
| Aircraft | B738/M-SDE2E3FGHIRWXY/LB1 |
Departure
| Time | 2026-05-08 13:01 |
|---|---|
| Airport | Dalaman International Airport (LTBS) |
Arrival
| Time | 2026-05-08 17:11 |
|---|---|
| Airport | Bournemouth Airport (EGHH) |
| Time | Latitude | Longitude | Altitude | Speed | Heading |
|---|---|---|---|---|---|
| 2026-05-08 12:47 | 36.72510 | 28.79133 | 11 ft | 0 kts | 285° |
| 2026-05-08 12:53 | 36.72510 | 28.79135 | 11 ft | 1 kts | 285° |
| 2026-05-08 12:54 | 36.72505 | 28.79155 | 11 ft | 3 kts | 285° |
| 2026-05-08 12:54 | 36.72500 | 28.79178 | 13 ft | 2 kts | 285° |
| 2026-05-08 12:54 | 36.72495 | 28.79198 | 12 ft | 3 kts | 304° |
| 2026-05-08 12:54 | 36.72484 | 28.79212 | 12 ft | 3 kts | 353° |
| 2026-05-08 12:55 | 36.72465 | 28.79210 | 11 ft | 2 kts | 14° |
| 2026-05-08 12:55 | 36.72457 | 28.79208 | 11 ft | 1 kts | 15° |
| 2026-05-08 12:55 | 36.72456 | 28.79207 | 11 ft | 0 kts | 15° |
| 2026-05-08 12:57 | 36.72460 | 28.79209 | 11 ft | 2 kts | 15° |
| 2026-05-08 12:57 | 36.72494 | 28.79220 | 11 ft | 8 kts | 14° |
| 2026-05-08 12:57 | 36.72557 | 28.79240 | 11 ft | 11 kts | 14° |
| 2026-05-08 12:58 | 36.72640 | 28.79268 | 11 ft | 13 kts | 15° |
| 2026-05-08 12:58 | 36.72684 | 28.79346 | 11 ft | 13 kts | 102° |
| 2026-05-08 12:58 | 36.72665 | 28.79465 | 11 ft | 14 kts | 104° |
| 2026-05-08 12:58 | 36.72642 | 28.79570 | 11 ft | 11 kts | 105° |
| 2026-05-08 12:59 | 36.72611 | 28.79667 | 12 ft | 13 kts | 142° |
| 2026-05-08 12:59 | 36.72553 | 28.79674 | 11 ft | 0 kts | 192° |
| 2026-05-08 13:00 | 36.72493 | 28.79655 | 11 ft | 30 kts | 195° |
| 2026-05-08 13:00 | 36.72053 | 28.79505 | 11 ft | 99 kts | 195° |
| 2026-05-08 13:00 | 36.71195 | 28.79212 | 13 ft | 155 kts | 195° |
| 2026-05-08 13:00 | 36.70091 | 28.78826 | 573 ft | 159 kts | 198° |
| 2026-05-08 13:01 | 36.68995 | 28.78406 | 1240 ft | 170 kts | 197° |
| 2026-05-08 13:01 | 36.67831 | 28.78018 | 1876 ft | 180 kts | 197° |
| 2026-05-08 13:01 | 36.66515 | 28.77584 | 2166 ft | 210 kts | 197° |
| 2026-05-08 13:01 | 36.65019 | 28.77083 | 2382 ft | 233 kts | 197° |
| 2026-05-08 13:02 | 36.63497 | 28.76307 | 2796 ft | 242 kts | 222° |
| 2026-05-08 13:02 | 36.62610 | 28.74571 | 3309 ft | 246 kts | 258° |
| 2026-05-08 13:02 | 36.62702 | 28.72417 | 3742 ft | 257 kts | 287° |
| 2026-05-08 13:02 | 36.63201 | 28.70283 | 4516 ft | 260 kts | 287° |
| 2026-05-08 13:03 | 36.63706 | 28.68103 | 5265 ft | 266 kts | 286° |
| 2026-05-08 13:03 | 36.64211 | 28.65869 | 6028 ft | 270 kts | 286° |
| 2026-05-08 13:03 | 36.64714 | 28.63607 | 6819 ft | 272 kts | 285° |
| 2026-05-08 13:03 | 36.65226 | 28.61334 | 7569 ft | 275 kts | 289° |
| 2026-05-08 13:04 | 36.66246 | 28.59319 | 8275 ft | 278 kts | 315° |
| 2026-05-08 13:04 | 36.67728 | 28.57778 | 9141 ft | 278 kts | 320° |
| 2026-05-08 13:04 | 36.69259 | 28.56285 | 9892 ft | 282 kts | 320° |
| 2026-05-08 13:04 | 36.70829 | 28.54743 | 10363 ft | 295 kts | 320° |
| 2026-05-08 13:05 | 36.72506 | 28.53083 | 10508 ft | 319 kts | 320° |
| 2026-05-08 13:05 | 36.74297 | 28.51301 | 10700 ft | 339 kts | 320° |
| 2026-05-08 13:05 | 36.76140 | 28.49463 | 11202 ft | 347 kts | 320° |
| 2026-05-08 13:05 | 36.78133 | 28.47651 | 11824 ft | 354 kts | 330° |
| 2026-05-08 13:06 | 36.80475 | 28.46623 | 12516 ft | 358 kts | 343° |
| 2026-05-08 13:06 | 36.82831 | 28.45826 | 13261 ft | 360 kts | 342° |
| 2026-05-08 13:06 | 36.85270 | 28.44980 | 13807 ft | 368 kts | 342° |
| 2026-05-08 13:06 | 36.87748 | 28.44102 | 14381 ft | 371 kts | 342° |
| 2026-05-08 13:07 | 36.90232 | 28.43209 | 15045 ft | 372 kts | 341° |
| 2026-05-08 13:07 | 36.92718 | 28.42307 | 15691 ft | 374 kts | 341° |
| 2026-05-08 13:07 | 36.95224 | 28.41394 | 16327 ft | 376 kts | 340° |
| 2026-05-08 13:07 | 36.97746 | 28.40472 | 16865 ft | 380 kts | 340° |
| 2026-05-08 13:08 | 37.00291 | 28.39544 | 17521 ft | 381 kts | 340° |
| 2026-05-08 13:08 | 37.02843 | 28.38617 | 18184 ft | 382 kts | 340° |
| 2026-05-08 13:08 | 37.05410 | 28.37693 | 18706 ft | 386 kts | 340° |
| 2026-05-08 13:08 | 37.07938 | 28.36578 | 19147 ft | 384 kts | 328° |
| 2026-05-08 13:09 | 37.10037 | 28.34600 | 19768 ft | 374 kts | 314° |
| 2026-05-08 13:09 | 37.11960 | 28.32408 | 20398 ft | 374 kts | 315° |
| 2026-05-08 13:09 | 37.13896 | 28.30253 | 20768 ft | 380 kts | 316° |
| 2026-05-08 13:09 | 37.15899 | 28.28058 | 21194 ft | 384 kts | 316° |
| 2026-05-08 13:10 | 37.17929 | 28.25872 | 21705 ft | 385 kts | 317° |
| 2026-05-08 13:10 | 37.19973 | 28.23688 | 22180 ft | 387 kts | 317° |
| 2026-05-08 13:10 | 37.22038 | 28.21479 | 22486 ft | 392 kts | 317° |
| 2026-05-08 13:10 | 37.24119 | 28.19250 | 23037 ft | 391 kts | 317° |
| 2026-05-08 13:11 | 37.26190 | 28.17029 | 23518 ft | 393 kts | 317° |
| 2026-05-08 13:11 | 37.28274 | 28.14787 | 23863 ft | 396 kts | 317° |
| 2026-05-08 13:11 | 37.30375 | 28.12523 | 24245 ft | 397 kts | 316° |
| 2026-05-08 13:11 | 37.32471 | 28.10248 | 24644 ft | 398 kts | 316° |
| 2026-05-08 13:12 | 37.34533 | 28.07997 | 25020 ft | 399 kts | 316° |
| 2026-05-08 13:12 | 37.36628 | 28.05704 | 25385 ft | 400 kts | 315° |
| 2026-05-08 13:12 | 37.38738 | 28.03392 | 25690 ft | 403 kts | 315° |
| 2026-05-08 13:12 | 37.40858 | 28.01067 | 26024 ft | 405 kts | 315° |
| 2026-05-08 13:13 | 37.42911 | 27.98816 | 26410 ft | 405 kts | 315° |
| 2026-05-08 13:13 | 37.45038 | 27.96485 | 26783 ft | 405 kts | 315° |
| 2026-05-08 13:13 | 37.47165 | 27.94150 | 27111 ft | 407 kts | 315° |
| 2026-05-08 13:13 | 37.49310 | 27.91794 | 27384 ft | 410 kts | 314° |
| 2026-05-08 13:14 | 37.51462 | 27.89428 | 27689 ft | 412 kts | 314° |
| 2026-05-08 13:14 | 37.53630 | 27.87043 | 28012 ft | 413 kts | 314° |
| 2026-05-08 13:14 | 37.55799 | 27.84655 | 28321 ft | 415 kts | 314° |
| 2026-05-08 13:14 | 37.57979 | 27.82254 | 28607 ft | 416 kts | 314° |
| 2026-05-08 13:15 | 37.60163 | 27.79847 | 28864 ft | 418 kts | 314° |
| 2026-05-08 13:15 | 37.62328 | 27.77458 | 29147 ft | 420 kts | 314° |
| 2026-05-08 13:15 | 37.64557 | 27.74997 | 29444 ft | 421 kts | 314° |
| 2026-05-08 13:15 | 37.66738 | 27.72586 | 29717 ft | 422 kts | 314° |
| 2026-05-08 13:16 | 37.68952 | 27.70137 | 29946 ft | 424 kts | 314° |
| 2026-05-08 13:16 | 37.71170 | 27.67682 | 30275 ft | 423 kts | 314° |
| 2026-05-08 13:16 | 37.73375 | 27.65241 | 30730 ft | 419 kts | 313° |
| 2026-05-08 13:16 | 37.75547 | 27.62837 | 31302 ft | 411 kts | 313° |
| 2026-05-08 13:17 | 37.77689 | 27.60462 | 31697 ft | 409 kts | 313° |
| 2026-05-08 13:17 | 37.79827 | 27.58084 | 31893 ft | 410 kts | 313° |
| 2026-05-08 13:17 | 37.81979 | 27.55687 | 32069 ft | 413 kts | 313° |
| 2026-05-08 13:17 | 37.84131 | 27.53291 | 32379 ft | 411 kts | 313° |
| 2026-05-08 13:18 | 37.86267 | 27.50916 | 32828 ft | 406 kts | 313° |
| 2026-05-08 13:18 | 37.88348 | 27.48600 | 33256 ft | 402 kts | 313° |
| 2026-05-08 13:18 | 37.90454 | 27.46265 | 33508 ft | 402 kts | 313° |
| 2026-05-08 13:18 | 37.92581 | 27.43925 | 33585 ft | 407 kts | 313° |
| 2026-05-08 13:19 | 37.94736 | 27.41562 | 33715 ft | 409 kts | 313° |
| 2026-05-08 13:19 | 37.96875 | 27.39222 | 34165 ft | 404 kts | 313° |
| 2026-05-08 13:19 | 37.98985 | 27.36913 | 34554 ft | 399 kts | 313° |
| 2026-05-08 13:19 | 38.01081 | 27.34612 | 34739 ft | 399 kts | 313° |
| 2026-05-08 13:20 | 38.05308 | 27.29952 | 35073 ft | 401 kts | 313° |
| 2026-05-08 13:20 | 38.07376 | 27.27673 | 35356 ft | 399 kts | 313° |
| 2026-05-08 13:20 | 38.09474 | 27.25355 | 35488 ft | 400 kts | 313° |
| 2026-05-08 13:21 | 38.11585 | 27.23021 | 35604 ft | 402 kts | 313° |
| 2026-05-08 13:21 | 38.13691 | 27.20692 | 35813 ft | 401 kts | 313° |
| 2026-05-08 13:21 | 38.15789 | 27.18372 | 36102 ft | 399 kts | 313° |
| 2026-05-08 13:21 | 38.17881 | 27.16056 | 36290 ft | 398 kts | 313° |
| 2026-05-08 13:22 | 38.22103 | 27.11370 | 36374 ft | 404 kts | 313° |
| 2026-05-08 13:22 | 38.24216 | 27.09025 | 36638 ft | 402 kts | 313° |
| 2026-05-08 13:22 | 38.26316 | 27.06694 | 36916 ft | 399 kts | 313° |
| 2026-05-08 13:23 | 38.28409 | 27.04367 | 37056 ft | 400 kts | 313° |
| 2026-05-08 13:23 | 38.30509 | 27.02029 | 37155 ft | 402 kts | 313° |
| 2026-05-08 13:23 | 38.34643 | 26.97445 | 37362 ft | 404 kts | 313° |
| 2026-05-08 13:24 | 38.36769 | 26.95103 | 37570 ft | 402 kts | 313° |
| 2026-05-08 13:24 | 38.38884 | 26.92775 | 37740 ft | 402 kts | 313° |
| 2026-05-08 13:24 | 38.43139 | 26.88075 | 37770 ft | 407 kts | 313° |
| 2026-05-08 13:25 | 38.47426 | 26.83329 | 37878 ft | 410 kts | 313° |
| 2026-05-08 13:25 | 38.51752 | 26.78531 | 38044 ft | 412 kts | 313° |
| 2026-05-08 13:26 | 38.53920 | 26.76126 | 38184 ft | 411 kts | 313° |
| 2026-05-08 13:26 | 38.56082 | 26.73724 | 38255 ft | 413 kts | 313° |
| 2026-05-08 13:26 | 38.60428 | 26.68887 | 38375 ft | 415 kts | 313° |
| 2026-05-08 13:27 | 38.64775 | 26.64040 | 38419 ft | 420 kts | 313° |
| 2026-05-08 13:27 | 38.69182 | 26.59122 | 38600 ft | 420 kts | 313° |
| 2026-05-08 13:28 | 38.73586 | 26.54196 | 38712 ft | 422 kts | 314° |
| 2026-05-08 13:28 | 38.78020 | 26.49228 | 38736 ft | 424 kts | 314° |
| 2026-05-08 13:29 | 38.82465 | 26.44242 | 38822 ft | 425 kts | 314° |
| 2026-05-08 13:29 | 38.84712 | 26.41740 | 38502 ft | 432 kts | 314° |
| 2026-05-08 13:29 | 38.87020 | 26.39273 | 38295 ft | 430 kts | 315° |
| 2026-05-08 13:30 | 38.89294 | 26.36889 | 38000 ft | 424 kts | 315° |
| 2026-05-08 13:30 | 38.91565 | 26.34519 | 37721 ft | 417 kts | 315° |
| 2026-05-08 13:30 | 38.93788 | 26.32192 | 37448 ft | 409 kts | 315° |
| 2026-05-08 13:30 | 38.95982 | 26.29882 | 37183 ft | 406 kts | 314° |
| 2026-05-08 13:31 | 39.00322 | 26.25277 | 37169 ft | 406 kts | 314° |
| 2026-05-08 13:31 | 39.04716 | 26.20594 | 37138 ft | 413 kts | 315° |
| 2026-05-08 13:32 | 39.09169 | 26.15846 | 37136 ft | 417 kts | 315° |
| 2026-05-08 13:32 | 39.13649 | 26.11065 | 37133 ft | 419 kts | 315° |
| 2026-05-08 13:33 | 39.18156 | 26.06247 | 37128 ft | 422 kts | 315° |
| 2026-05-08 13:33 | 39.22680 | 26.01401 | 37113 ft | 422 kts | 315° |
| 2026-05-08 13:34 | 39.27042 | 25.96725 | 37097 ft | 413 kts | 315° |
| 2026-05-08 13:34 | 39.31420 | 25.91980 | 37111 ft | 410 kts | 314° |
| 2026-05-08 13:35 | 39.35725 | 25.87176 | 37119 ft | 409 kts | 313° |
| 2026-05-08 13:35 | 39.40023 | 25.82359 | 37094 ft | 409 kts | 313° |
| 2026-05-08 13:36 | 39.44334 | 25.77530 | 37121 ft | 410 kts | 313° |
| 2026-05-08 13:36 | 39.48663 | 25.72681 | 37110 ft | 412 kts | 313° |
| 2026-05-08 13:37 | 39.53010 | 25.67806 | 37104 ft | 414 kts | 313° |
| 2026-05-08 13:37 | 39.57375 | 25.62903 | 37123 ft | 416 kts | 313° |
| 2026-05-08 13:38 | 39.61742 | 25.57988 | 37111 ft | 418 kts | 313° |
| 2026-05-08 13:38 | 39.66151 | 25.53018 | 37089 ft | 421 kts | 313° |
| 2026-05-08 13:39 | 39.70577 | 25.48020 | 37114 ft | 422 kts | 313° |
| 2026-05-08 13:39 | 39.75008 | 25.43008 | 37103 ft | 423 kts | 313° |
| 2026-05-08 13:40 | 39.79446 | 25.37979 | 37096 ft | 423 kts | 313° |
| 2026-05-08 13:40 | 39.83886 | 25.32938 | 37121 ft | 423 kts | 313° |
| 2026-05-08 13:41 | 39.88323 | 25.27893 | 37089 ft | 423 kts | 313° |
| 2026-05-08 13:41 | 39.92596 | 25.22675 | 37036 ft | 418 kts | 304° |
| 2026-05-08 13:42 | 39.94297 | 25.19658 | 37140 ft | 411 kts | 300° |
| 2026-05-08 13:42 | 39.95914 | 25.16637 | 37091 ft | 412 kts | 300° |
| 2026-05-08 13:42 | 39.99196 | 25.10502 | 37072 ft | 413 kts | 300° |
| 2026-05-08 13:43 | 40.02480 | 25.04400 | 37074 ft | 413 kts | 300° |
| 2026-05-08 13:43 | 40.05711 | 24.98415 | 37084 ft | 414 kts | 300° |
| 2026-05-08 13:44 | 40.08486 | 24.93271 | 37103 ft | 414 kts | 300° |
| 2026-05-08 13:44 | 40.11784 | 24.87149 | 37098 ft | 415 kts | 300° |
| 2026-05-08 13:45 | 40.15104 | 24.80973 | 37098 ft | 415 kts | 300° |
| 2026-05-08 13:45 | 40.18432 | 24.74769 | 37084 ft | 416 kts | 300° |
| 2026-05-08 13:46 | 40.21751 | 24.68571 | 37082 ft | 417 kts | 300° |
| 2026-05-08 13:46 | 40.25057 | 24.62383 | 37086 ft | 417 kts | 300° |
| 2026-05-08 13:47 | 40.28379 | 24.56154 | 37082 ft | 417 kts | 300° |
| 2026-05-08 13:47 | 40.31698 | 24.49918 | 37075 ft | 417 kts | 300° |
| 2026-05-08 13:48 | 40.35018 | 24.43670 | 37093 ft | 417 kts | 300° |
| 2026-05-08 13:48 | 40.38334 | 24.37414 | 37099 ft | 418 kts | 300° |
| 2026-05-08 13:49 | 40.41651 | 24.31144 | 37084 ft | 419 kts | 300° |
| 2026-05-08 13:49 | 40.44978 | 24.24841 | 37083 ft | 420 kts | 300° |
| 2026-05-08 13:50 | 40.48280 | 24.18576 | 37077 ft | 420 kts | 300° |
| 2026-05-08 13:50 | 40.51607 | 24.12248 | 37081 ft | 421 kts | 300° |
| 2026-05-08 13:51 | 40.54935 | 24.05905 | 37087 ft | 422 kts | 300° |
| 2026-05-08 13:51 | 40.58212 | 23.99649 | 37071 ft | 423 kts | 300° |
| 2026-05-08 13:52 | 40.61581 | 23.93285 | 37072 ft | 424 kts | 301° |
| 2026-05-08 13:52 | 40.65044 | 23.86971 | 37061 ft | 425 kts | 301° |
| 2026-05-08 13:53 | 40.68510 | 23.80662 | 37074 ft | 425 kts | 301° |
| 2026-05-08 13:53 | 40.71769 | 23.74693 | 37093 ft | 426 kts | 301° |
| 2026-05-08 13:54 | 40.75230 | 23.68327 | 37070 ft | 427 kts | 301° |
| 2026-05-08 13:54 | 40.78661 | 23.61997 | 37058 ft | 427 kts | 301° |
| 2026-05-08 13:55 | 40.82118 | 23.55609 | 37058 ft | 428 kts | 301° |
| 2026-05-08 13:56 | 40.87298 | 23.46010 | 37050 ft | 428 kts | 301° |
| 2026-05-08 13:56 | 40.90754 | 23.39589 | 37055 ft | 428 kts | 301° |
| 2026-05-08 13:57 | 40.94197 | 23.33181 | 37076 ft | 427 kts | 301° |
| 2026-05-08 13:57 | 40.97646 | 23.26746 | 37056 ft | 428 kts | 301° |
| 2026-05-08 13:58 | 41.01061 | 23.20362 | 37054 ft | 429 kts | 301° |
| 2026-05-08 13:58 | 41.04524 | 23.13874 | 37079 ft | 431 kts | 301° |
| 2026-05-08 13:59 | 41.07985 | 23.07377 | 37064 ft | 431 kts | 301° |
| 2026-05-08 13:59 | 41.11447 | 23.00864 | 37050 ft | 431 kts | 301° |
| 2026-05-08 14:00 | 41.14831 | 22.94484 | 37037 ft | 431 kts | 301° |
| 2026-05-08 14:00 | 41.18271 | 22.87986 | 37037 ft | 431 kts | 301° |
| 2026-05-08 14:01 | 41.21708 | 22.81480 | 37045 ft | 430 kts | 301° |
| 2026-05-08 14:01 | 41.25178 | 22.74996 | 37049 ft | 431 kts | 306° |
| 2026-05-08 14:02 | 41.29174 | 22.69011 | 37047 ft | 433 kts | 309° |
| 2026-05-08 14:02 | 41.33288 | 22.63143 | 37048 ft | 434 kts | 309° |
| 2026-05-08 14:03 | 41.37401 | 22.57201 | 37016 ft | 437 kts | 309° |
| 2026-05-08 14:03 | 41.41484 | 22.51229 | 37021 ft | 436 kts | 309° |
| 2026-05-08 14:04 | 41.45547 | 22.45250 | 37029 ft | 434 kts | 309° |
| 2026-05-08 14:04 | 41.49568 | 22.39315 | 37026 ft | 434 kts | 309° |
| 2026-05-08 14:05 | 41.53609 | 22.33340 | 37034 ft | 433 kts | 309° |
| 2026-05-08 14:05 | 41.57638 | 22.27372 | 37026 ft | 432 kts | 309° |
| 2026-05-08 14:06 | 41.61663 | 22.21399 | 37006 ft | 433 kts | 309° |
| 2026-05-08 14:06 | 41.65683 | 22.15421 | 37021 ft | 433 kts | 309° |
| 2026-05-08 14:07 | 41.69712 | 22.09417 | 37025 ft | 433 kts | 309° |
| 2026-05-08 14:07 | 41.73737 | 22.03407 | 37022 ft | 434 kts | 309° |
| 2026-05-08 14:08 | 41.77693 | 21.97487 | 37015 ft | 435 kts | 309° |
| 2026-05-08 14:08 | 41.81735 | 21.91427 | 36984 ft | 437 kts | 309° |
| 2026-05-08 14:09 | 41.85781 | 21.85350 | 37022 ft | 437 kts | 309° |
| 2026-05-08 14:09 | 41.89839 | 21.79241 | 37041 ft | 438 kts | 309° |
| 2026-05-08 14:10 | 41.93898 | 21.73118 | 37034 ft | 439 kts | 308° |
| 2026-05-08 14:10 | 41.97962 | 21.66974 | 37006 ft | 439 kts | 308° |
| 2026-05-08 14:11 | 42.01981 | 21.60887 | 37051 ft | 439 kts | 308° |
| 2026-05-08 14:11 | 42.06049 | 21.54711 | 36993 ft | 441 kts | 308° |
| 2026-05-08 14:12 | 42.10124 | 21.48511 | 37003 ft | 443 kts | 308° |
| 2026-05-08 14:12 | 42.14215 | 21.42277 | 37003 ft | 443 kts | 308° |
| 2026-05-08 14:13 | 42.18231 | 21.36084 | 37003 ft | 440 kts | 308° |
| 2026-05-08 14:13 | 42.22200 | 21.29787 | 37022 ft | 436 kts | 307° |
| 2026-05-08 14:14 | 42.26072 | 21.23614 | 37034 ft | 432 kts | 307° |
| 2026-05-08 14:14 | 42.29947 | 21.17439 | 37063 ft | 429 kts | 307° |
| 2026-05-08 14:15 | 42.33802 | 21.11293 | 37067 ft | 429 kts | 307° |
| 2026-05-08 14:15 | 42.37651 | 21.05148 | 37047 ft | 427 kts | 307° |
| 2026-05-08 14:16 | 42.41427 | 20.99107 | 37049 ft | 427 kts | 307° |
| 2026-05-08 14:16 | 42.45283 | 20.92922 | 37050 ft | 433 kts | 307° |
| 2026-05-08 14:17 | 42.49189 | 20.86645 | 37060 ft | 438 kts | 307° |
| 2026-05-08 14:17 | 42.53104 | 20.80342 | 37056 ft | 441 kts | 307° |
| 2026-05-08 14:18 | 42.57025 | 20.74019 | 37029 ft | 434 kts | 307° |
| 2026-05-08 14:18 | 42.60872 | 20.67802 | 37040 ft | 429 kts | 307° |
| 2026-05-08 14:19 | 42.64709 | 20.61583 | 37039 ft | 429 kts | 307° |
| 2026-05-08 14:19 | 42.68538 | 20.55364 | 37029 ft | 429 kts | 307° |
| 2026-05-08 14:20 | 42.72365 | 20.49135 | 37037 ft | 430 kts | 307° |
| 2026-05-08 14:20 | 42.76200 | 20.42881 | 37038 ft | 430 kts | 307° |
| 2026-05-08 14:21 | 42.80020 | 20.36638 | 37022 ft | 434 kts | 307° |
| 2026-05-08 14:21 | 42.83883 | 20.30313 | 37019 ft | 435 kts | 307° |
| 2026-05-08 14:22 | 42.87758 | 20.23955 | 37027 ft | 436 kts | 307° |
| 2026-05-08 14:22 | 42.91632 | 20.17584 | 37032 ft | 435 kts | 307° |
| 2026-05-08 14:23 | 42.95490 | 20.11225 | 37055 ft | 434 kts | 307° |
| 2026-05-08 14:23 | 42.99339 | 20.04867 | 37025 ft | 434 kts | 307° |
| 2026-05-08 14:24 | 43.03106 | 19.98630 | 37015 ft | 434 kts | 307° |
| 2026-05-08 14:24 | 43.06939 | 19.92270 | 37012 ft | 433 kts | 307° |
| 2026-05-08 14:25 | 43.10767 | 19.85905 | 37002 ft | 433 kts | 307° |
| 2026-05-08 14:25 | 43.14588 | 19.79539 | 37015 ft | 432 kts | 306° |
| 2026-05-08 14:26 | 43.18395 | 19.73181 | 36997 ft | 432 kts | 306° |
| 2026-05-08 14:26 | 43.22170 | 19.66863 | 37008 ft | 430 kts | 307° |
| 2026-05-08 14:27 | 43.25955 | 19.60515 | 37005 ft | 430 kts | 306° |
| 2026-05-08 14:27 | 43.29742 | 19.54149 | 37009 ft | 429 kts | 306° |
| 2026-05-08 14:28 | 43.33518 | 19.47787 | 36985 ft | 430 kts | 306° |
| 2026-05-08 14:28 | 43.37304 | 19.41395 | 36979 ft | 431 kts | 306° |
| 2026-05-08 14:29 | 43.41085 | 19.34997 | 37000 ft | 431 kts | 306° |
| 2026-05-08 14:29 | 43.44847 | 19.28619 | 37008 ft | 432 kts | 306° |
| 2026-05-08 14:30 | 43.48625 | 19.22199 | 37013 ft | 430 kts | 306° |
| 2026-05-08 14:30 | 43.51761 | 19.16858 | 36977 ft | 432 kts | 306° |
| 2026-05-08 14:31 | 43.55460 | 19.10349 | 36975 ft | 431 kts | 303° |
| 2026-05-08 14:31 | 43.58955 | 19.03637 | 36977 ft | 431 kts | 302° |
| 2026-05-08 14:32 | 43.64091 | 18.93711 | 37004 ft | 431 kts | 302° |
| 2026-05-08 14:32 | 43.67607 | 18.86970 | 36991 ft | 433 kts | 302° |
| 2026-05-08 14:33 | 43.71106 | 18.80268 | 37016 ft | 432 kts | 302° |
| 2026-05-08 14:33 | 43.74628 | 18.73508 | 37004 ft | 433 kts | 302° |
| 2026-05-08 14:34 | 43.78146 | 18.66740 | 37019 ft | 433 kts | 302° |
| 2026-05-08 14:34 | 43.81660 | 18.59963 | 37022 ft | 433 kts | 302° |
| 2026-05-08 14:35 | 43.85175 | 18.53169 | 37028 ft | 433 kts | 302° |
| 2026-05-08 14:35 | 43.88679 | 18.46379 | 37020 ft | 433 kts | 302° |
| 2026-05-08 14:36 | 43.92178 | 18.39583 | 37018 ft | 432 kts | 302° |
| 2026-05-08 14:36 | 43.95647 | 18.32829 | 37025 ft | 431 kts | 302° |
| 2026-05-08 14:37 | 43.99127 | 18.26040 | 37022 ft | 431 kts | 302° |
| 2026-05-08 14:37 | 44.02586 | 18.19275 | 37013 ft | 430 kts | 302° |
| 2026-05-08 14:38 | 44.06045 | 18.12494 | 37025 ft | 429 kts | 302° |
| 2026-05-08 14:38 | 44.09495 | 18.05714 | 37029 ft | 429 kts | 302° |
| 2026-05-08 14:39 | 44.12879 | 17.99051 | 37027 ft | 428 kts | 302° |
| 2026-05-08 14:39 | 44.16313 | 17.92325 | 37037 ft | 428 kts | 302° |
| 2026-05-08 14:40 | 44.19784 | 17.85547 | 37026 ft | 429 kts | 302° |
| 2026-05-08 14:40 | 44.23242 | 17.78773 | 37031 ft | 429 kts | 302° |
| 2026-05-08 14:41 | 44.26700 | 17.71979 | 37026 ft | 430 kts | 302° |
| 2026-05-08 14:41 | 44.30160 | 17.65160 | 37030 ft | 430 kts | 302° |
| 2026-05-08 14:42 | 44.33592 | 17.58382 | 37039 ft | 430 kts | 302° |
| 2026-05-08 14:42 | 44.37046 | 17.51544 | 37025 ft | 431 kts | 302° |
| 2026-05-08 14:43 | 44.40505 | 17.44680 | 37048 ft | 432 kts | 302° |
| 2026-05-08 14:43 | 44.43965 | 17.37799 | 37032 ft | 432 kts | 302° |
| 2026-05-08 14:44 | 44.47401 | 17.30950 | 37033 ft | 429 kts | 301° |
| 2026-05-08 14:44 | 44.50824 | 17.24107 | 37016 ft | 429 kts | 301° |
| 2026-05-08 14:45 | 44.52534 | 17.20682 | 36913 ft | 431 kts | 301° |
| 2026-05-08 14:45 | 44.54263 | 17.17213 | 36602 ft | 433 kts | 301° |
| 2026-05-08 14:45 | 44.55980 | 17.13769 | 36357 ft | 430 kts | 301° |
| 2026-05-08 14:45 | 44.57687 | 17.10338 | 36100 ft | 428 kts | 301° |
| 2026-05-08 14:46 | 44.61092 | 17.03487 | 36038 ft | 429 kts | 301° |
| 2026-05-08 14:46 | 44.64461 | 16.96688 | 36051 ft | 431 kts | 301° |
| 2026-05-08 14:47 | 44.67888 | 16.89757 | 36017 ft | 431 kts | 301° |
| 2026-05-08 14:47 | 44.71271 | 16.82899 | 36037 ft | 429 kts | 301° |
| 2026-05-08 14:48 | 44.74659 | 16.76014 | 36037 ft | 427 kts | 301° |
| 2026-05-08 14:48 | 44.78034 | 16.69140 | 36045 ft | 426 kts | 301° |
| 2026-05-08 14:49 | 44.81396 | 16.62274 | 36042 ft | 425 kts | 300° |
| 2026-05-08 14:49 | 44.84751 | 16.55406 | 36039 ft | 424 kts | 300° |
| 2026-05-08 14:50 | 44.88091 | 16.48552 | 36040 ft | 424 kts | 300° |
| 2026-05-08 14:50 | 44.91421 | 16.41701 | 36032 ft | 424 kts | 300° |
| 2026-05-08 14:51 | 44.94751 | 16.34838 | 36029 ft | 424 kts | 300° |
| 2026-05-08 14:51 | 44.97897 | 16.27877 | 36018 ft | 421 kts | 294° |
| 2026-05-08 14:52 | 45.01774 | 16.16791 | 36068 ft | 421 kts | 292° |
| 2026-05-08 14:53 | 45.04348 | 16.09339 | 36051 ft | 422 kts | 292° |
| 2026-05-08 14:53 | 45.06958 | 16.01872 | 36041 ft | 423 kts | 292° |
| 2026-05-08 14:54 | 45.09532 | 15.94538 | 36027 ft | 424 kts | 292° |
| 2026-05-08 14:54 | 45.12151 | 15.87063 | 36029 ft | 424 kts | 292° |
| 2026-05-08 14:55 | 45.14760 | 15.79597 | 36040 ft | 424 kts | 292° |
| 2026-05-08 14:55 | 45.17375 | 15.72090 | 36020 ft | 424 kts | 292° |
| 2026-05-08 14:56 | 45.19980 | 15.64588 | 36027 ft | 423 kts | 292° |
| 2026-05-08 14:56 | 45.22557 | 15.57150 | 36036 ft | 422 kts | 292° |
| 2026-05-08 14:57 | 45.25142 | 15.49664 | 36025 ft | 422 kts | 292° |
| 2026-05-08 14:57 | 45.27736 | 15.42132 | 36026 ft | 422 kts | 292° |
| 2026-05-08 14:58 | 45.30289 | 15.34696 | 36024 ft | 421 kts | 291° |
| 2026-05-08 14:58 | 45.32854 | 15.27207 | 36030 ft | 421 kts | 291° |
| 2026-05-08 14:59 | 45.35412 | 15.19717 | 36041 ft | 420 kts | 291° |
| 2026-05-08 14:59 | 45.39239 | 15.08471 | 36022 ft | 421 kts | 291° |
| 2026-05-08 15:00 | 45.41785 | 15.00960 | 36023 ft | 421 kts | 291° |
| 2026-05-08 15:00 | 45.44266 | 14.93627 | 36031 ft | 420 kts | 291° |
| 2026-05-08 15:01 | 45.46798 | 14.86113 | 36037 ft | 420 kts | 291° |
| 2026-05-08 15:01 | 45.49186 | 14.78515 | 36032 ft | 420 kts | 289° |
| 2026-05-08 15:02 | 45.51507 | 14.70869 | 36027 ft | 420 kts | 289° |
| 2026-05-08 15:02 | 45.53833 | 14.63222 | 36033 ft | 420 kts | 289° |
| 2026-05-08 15:03 | 45.56173 | 14.55551 | 36033 ft | 421 kts | 289° |
| 2026-05-08 15:03 | 45.58511 | 14.47882 | 36016 ft | 421 kts | 289° |
| 2026-05-08 15:04 | 45.60828 | 14.40264 | 36020 ft | 421 kts | 289° |
| 2026-05-08 15:04 | 45.63157 | 14.32578 | 36030 ft | 422 kts | 289° |
| 2026-05-08 15:05 | 45.65489 | 14.24860 | 36024 ft | 423 kts | 289° |
| 2026-05-08 15:05 | 45.67816 | 14.17139 | 36027 ft | 423 kts | 289° |
| 2026-05-08 15:06 | 45.70141 | 14.09397 | 36031 ft | 423 kts | 289° |
| 2026-05-08 15:06 | 45.72462 | 14.01642 | 36031 ft | 423 kts | 289° |
| 2026-05-08 15:07 | 45.74716 | 13.94093 | 36016 ft | 422 kts | 289° |
| 2026-05-08 15:07 | 45.77030 | 13.86317 | 36029 ft | 421 kts | 289° |
| 2026-05-08 15:08 | 45.78936 | 13.79893 | 36012 ft | 421 kts | 289° |
| 2026-05-08 15:08 | 45.81589 | 13.70924 | 36006 ft | 419 kts | 288° |
| 2026-05-08 15:09 | 45.83860 | 13.63223 | 35998 ft | 419 kts | 288° |
| 2026-05-08 15:09 | 45.86128 | 13.55531 | 35997 ft | 418 kts | 289° |
| 2026-05-08 15:10 | 45.88412 | 13.47867 | 35988 ft | 418 kts | 289° |
| 2026-05-08 15:10 | 45.90692 | 13.40203 | 36007 ft | 417 kts | 289° |
| 2026-05-08 15:11 | 45.92964 | 13.32535 | 35984 ft | 418 kts | 288° |
| 2026-05-08 15:11 | 45.95231 | 13.24855 | 36010 ft | 418 kts | 288° |
| 2026-05-08 15:12 | 45.97497 | 13.17151 | 36014 ft | 419 kts | 288° |
| 2026-05-08 15:12 | 45.99763 | 13.09421 | 36015 ft | 420 kts | 288° |
| 2026-05-08 15:13 | 46.01638 | 13.03009 | 36040 ft | 420 kts | 288° |
| 2026-05-08 15:13 | 46.03863 | 12.95377 | 36069 ft | 421 kts | 288° |
| 2026-05-08 15:14 | 46.06125 | 12.87596 | 36046 ft | 421 kts | 288° |
| 2026-05-08 15:14 | 46.08384 | 12.79799 | 36054 ft | 422 kts | 288° |
| 2026-05-08 15:15 | 46.10641 | 12.71986 | 36032 ft | 421 kts | 288° |
| 2026-05-08 15:15 | 46.12885 | 12.64193 | 36020 ft | 421 kts | 288° |
| 2026-05-08 15:16 | 46.15126 | 12.56384 | 36018 ft | 421 kts | 288° |
| 2026-05-08 15:16 | 46.17356 | 12.48590 | 36022 ft | 420 kts | 288° |
| 2026-05-08 15:17 | 46.19574 | 12.40814 | 36043 ft | 419 kts | 288° |
| 2026-05-08 15:17 | 46.21777 | 12.33061 | 36039 ft | 420 kts | 288° |
| 2026-05-08 15:18 | 46.23990 | 12.25251 | 36035 ft | 420 kts | 288° |
| 2026-05-08 15:18 | 46.26198 | 12.17432 | 36033 ft | 419 kts | 288° |
| 2026-05-08 15:19 | 46.28391 | 12.09644 | 36049 ft | 419 kts | 288° |
| 2026-05-08 15:19 | 46.30588 | 12.01817 | 36059 ft | 421 kts | 288° |
| 2026-05-08 15:20 | 46.32752 | 11.94078 | 36063 ft | 421 kts | 288° |
| 2026-05-08 15:20 | 46.34947 | 11.86206 | 36046 ft | 422 kts | 288° |
| 2026-05-08 15:21 | 46.37142 | 11.78312 | 36067 ft | 422 kts | 287° |
| 2026-05-08 15:21 | 46.39338 | 11.70378 | 36048 ft | 425 kts | 287° |
| 2026-05-08 15:22 | 46.41515 | 11.62373 | 35996 ft | 428 kts | 287° |
| 2026-05-08 15:22 | 46.43669 | 11.54382 | 35976 ft | 429 kts | 287° |
| 2026-05-08 15:23 | 46.45844 | 11.46301 | 35954 ft | 430 kts | 287° |
| 2026-05-08 15:23 | 46.48010 | 11.38236 | 35938 ft | 430 kts | 287° |
| 2026-05-08 15:24 | 46.50170 | 11.30168 | 35951 ft | 429 kts | 287° |
| 2026-05-08 15:24 | 46.52323 | 11.22098 | 36020 ft | 427 kts | 287° |
| 2026-05-08 15:25 | 46.54444 | 11.14120 | 36058 ft | 424 kts | 287° |
| 2026-05-08 15:25 | 46.56563 | 11.06123 | 36060 ft | 423 kts | 287° |
| 2026-05-08 15:26 | 46.58641 | 10.98250 | 36075 ft | 423 kts | 287° |
| 2026-05-08 15:26 | 46.60741 | 10.90270 | 36077 ft | 422 kts | 287° |
| 2026-05-08 15:27 | 46.62609 | 10.82210 | 36098 ft | 418 kts | 284° |
| 2026-05-08 15:27 | 46.64644 | 10.74220 | 36085 ft | 421 kts | 288° |
| 2026-05-08 15:28 | 46.66829 | 10.66356 | 36080 ft | 421 kts | 288° |
| 2026-05-08 15:28 | 46.68967 | 10.58411 | 36087 ft | 421 kts | 287° |
| 2026-05-08 15:29 | 46.71072 | 10.50423 | 36038 ft | 422 kts | 287° |
| 2026-05-08 15:29 | 46.73170 | 10.42430 | 36043 ft | 423 kts | 287° |
| 2026-05-08 15:30 | 46.75346 | 10.34469 | 36024 ft | 423 kts | 289° |
| 2026-05-08 15:30 | 46.77648 | 10.26583 | 36033 ft | 423 kts | 289° |
| 2026-05-08 15:31 | 46.79943 | 10.18704 | 36040 ft | 422 kts | 290° |
| 2026-05-08 15:31 | 46.82213 | 10.10822 | 36048 ft | 421 kts | 289° |
| 2026-05-08 15:32 | 46.84464 | 10.02940 | 36075 ft | 419 kts | 289° |
| 2026-05-08 15:32 | 46.86667 | 9.95203 | 36074 ft | 419 kts | 289° |
| 2026-05-08 15:33 | 46.88902 | 9.87325 | 36054 ft | 419 kts | 289° |
| 2026-05-08 15:33 | 46.91131 | 9.79442 | 36064 ft | 419 kts | 290° |
| 2026-05-08 15:34 | 46.93339 | 9.71609 | 36072 ft | 419 kts | 290° |
| 2026-05-08 15:34 | 46.95553 | 9.63728 | 36057 ft | 418 kts | 289° |
| 2026-05-08 15:35 | 46.97759 | 9.55853 | 36049 ft | 418 kts | 289° |
| 2026-05-08 15:35 | 46.99956 | 9.47980 | 36046 ft | 417 kts | 289° |
| 2026-05-08 15:36 | 47.01773 | 9.41452 | 36039 ft | 417 kts | 290° |
| 2026-05-08 15:36 | 47.04327 | 9.32241 | 36041 ft | 417 kts | 290° |
| 2026-05-08 15:37 | 47.06510 | 9.24346 | 36027 ft | 417 kts | 290° |
| 2026-05-08 15:37 | 47.08684 | 9.16454 | 36021 ft | 417 kts | 290° |
| 2026-05-08 15:38 | 47.10844 | 9.08581 | 36055 ft | 415 kts | 290° |
| 2026-05-08 15:38 | 47.13003 | 9.00695 | 36046 ft | 416 kts | 290° |
| 2026-05-08 15:39 | 47.15110 | 8.92975 | 36033 ft | 417 kts | 290° |
| 2026-05-08 15:39 | 47.17209 | 8.85015 | 36014 ft | 417 kts | 289° |
| 2026-05-08 15:40 | 47.19218 | 8.77008 | 36010 ft | 417 kts | 288° |
| 2026-05-08 15:40 | 47.21229 | 8.68998 | 36019 ft | 417 kts | 289° |
| 2026-05-08 15:41 | 47.23242 | 8.60996 | 35999 ft | 417 kts | 289° |
| 2026-05-08 15:41 | 47.25251 | 8.52998 | 36004 ft | 416 kts | 289° |
| 2026-05-08 15:42 | 47.27241 | 8.45071 | 36005 ft | 415 kts | 289° |
| 2026-05-08 15:42 | 47.29244 | 8.37118 | 36026 ft | 414 kts | 289° |
| 2026-05-08 15:43 | 47.31245 | 8.29134 | 36010 ft | 414 kts | 288° |
| 2026-05-08 15:43 | 47.33232 | 8.21180 | 36025 ft | 413 kts | 288° |
| 2026-05-08 15:44 | 47.35207 | 8.13243 | 36009 ft | 412 kts | 288° |
| 2026-05-08 15:44 | 47.37173 | 8.05316 | 36012 ft | 412 kts | 288° |
| 2026-05-08 15:45 | 47.39097 | 7.97533 | 36018 ft | 411 kts | 288° |
| 2026-05-08 15:45 | 47.41051 | 7.89598 | 36023 ft | 411 kts | 288° |
| 2026-05-08 15:46 | 47.42995 | 7.81678 | 36003 ft | 411 kts | 288° |
| 2026-05-08 15:46 | 47.44925 | 7.73789 | 36012 ft | 411 kts | 288° |
| 2026-05-08 15:47 | 47.46835 | 7.65826 | 35984 ft | 411 kts | 285° |
| 2026-05-08 15:47 | 47.48257 | 7.57644 | 35987 ft | 411 kts | 282° |
| 2026-05-08 15:48 | 47.50258 | 7.45294 | 36014 ft | 412 kts | 282° |
| 2026-05-08 15:49 | 47.51607 | 7.37061 | 36008 ft | 412 kts | 283° |
| 2026-05-08 15:49 | 47.52961 | 7.28831 | 36026 ft | 412 kts | 283° |
| 2026-05-08 15:50 | 47.54312 | 7.20595 | 36005 ft | 412 kts | 282° |
| 2026-05-08 15:50 | 47.55658 | 7.12353 | 36006 ft | 411 kts | 282° |
| 2026-05-08 15:51 | 47.56986 | 7.04176 | 36002 ft | 410 kts | 282° |
| 2026-05-08 15:51 | 47.58293 | 6.96090 | 36010 ft | 409 kts | 282° |
| 2026-05-08 15:52 | 47.59613 | 6.87882 | 35993 ft | 408 kts | 282° |
| 2026-05-08 15:52 | 47.60923 | 6.79700 | 35991 ft | 408 kts | 282° |
| 2026-05-08 15:53 | 47.62226 | 6.71518 | 36003 ft | 407 kts | 282° |
| 2026-05-08 15:53 | 47.63520 | 6.63353 | 36002 ft | 407 kts | 282° |
| 2026-05-08 15:54 | 47.64810 | 6.55172 | 36009 ft | 406 kts | 282° |
| 2026-05-08 15:54 | 47.66089 | 6.47018 | 36010 ft | 406 kts | 282° |
| 2026-05-08 15:55 | 47.67364 | 6.38852 | 36008 ft | 405 kts | 282° |
| 2026-05-08 15:55 | 47.69348 | 6.26713 | 36002 ft | 405 kts | 285° |
| 2026-05-08 15:56 | 47.71046 | 6.18726 | 36018 ft | 405 kts | 287° |
| 2026-05-08 15:56 | 47.72488 | 6.12120 | 36017 ft | 404 kts | 287° |
| 2026-05-08 15:57 | 47.74199 | 6.04149 | 36010 ft | 404 kts | 287° |
| 2026-05-08 15:57 | 47.75860 | 5.96290 | 36019 ft | 404 kts | 286° |
| 2026-05-08 15:58 | 47.77531 | 5.88326 | 36008 ft | 403 kts | 287° |
| 2026-05-08 15:58 | 47.79183 | 5.80415 | 36016 ft | 402 kts | 287° |
| 2026-05-08 15:59 | 47.80837 | 5.72470 | 36015 ft | 402 kts | 287° |
| 2026-05-08 15:59 | 47.82484 | 5.64521 | 36019 ft | 401 kts | 286° |
| 2026-05-08 16:00 | 47.84122 | 5.56590 | 36025 ft | 401 kts | 286° |
| 2026-05-08 16:00 | 47.85751 | 5.48667 | 36020 ft | 400 kts | 287° |
| 2026-05-08 16:01 | 47.87374 | 5.40744 | 36032 ft | 399 kts | 287° |
| 2026-05-08 16:01 | 47.88983 | 5.32867 | 36034 ft | 399 kts | 286° |
| 2026-05-08 16:02 | 47.91032 | 5.25189 | 36028 ft | 400 kts | 298° |
| 2026-05-08 16:02 | 47.94372 | 5.18537 | 36078 ft | 401 kts | 310° |
| 2026-05-08 16:03 | 47.98164 | 5.12386 | 36059 ft | 403 kts | 310° |
| 2026-05-08 16:03 | 48.01958 | 5.06201 | 36042 ft | 404 kts | 310° |
| 2026-05-08 16:04 | 48.05739 | 4.99978 | 36037 ft | 404 kts | 309° |
| 2026-05-08 16:04 | 48.09458 | 4.93822 | 36030 ft | 404 kts | 309° |
| 2026-05-08 16:05 | 48.13228 | 4.87564 | 36048 ft | 404 kts | 309° |
| 2026-05-08 16:05 | 48.16991 | 4.81302 | 36039 ft | 405 kts | 309° |
| 2026-05-08 16:06 | 48.20738 | 4.75052 | 36031 ft | 405 kts | 309° |
| 2026-05-08 16:06 | 48.24500 | 4.68765 | 36017 ft | 405 kts | 309° |
| 2026-05-08 16:07 | 48.28263 | 4.62460 | 36025 ft | 404 kts | 309° |
| 2026-05-08 16:07 | 48.32011 | 4.56149 | 36025 ft | 404 kts | 309° |
| 2026-05-08 16:08 | 48.35745 | 4.49840 | 36041 ft | 403 kts | 309° |
| 2026-05-08 16:08 | 48.39468 | 4.43534 | 36025 ft | 403 kts | 309° |
| 2026-05-08 16:09 | 48.43161 | 4.37266 | 36032 ft | 402 kts | 309° |
| 2026-05-08 16:09 | 48.46871 | 4.30953 | 36021 ft | 402 kts | 309° |
| 2026-05-08 16:10 | 48.50582 | 4.24624 | 36029 ft | 402 kts | 309° |
| 2026-05-08 16:10 | 48.54280 | 4.18302 | 36022 ft | 402 kts | 309° |
| 2026-05-08 16:11 | 48.57973 | 4.11973 | 36058 ft | 401 kts | 309° |
| 2026-05-08 16:11 | 48.61668 | 4.05627 | 36030 ft | 402 kts | 309° |
| 2026-05-08 16:12 | 48.65274 | 3.99416 | 36022 ft | 403 kts | 309° |
| 2026-05-08 16:12 | 48.68970 | 3.93038 | 36024 ft | 404 kts | 309° |
| 2026-05-08 16:13 | 48.72678 | 3.86622 | 36039 ft | 404 kts | 309° |
| 2026-05-08 16:13 | 48.76320 | 3.80106 | 36030 ft | 405 kts | 308° |
| 2026-05-08 16:14 | 48.79932 | 3.73535 | 36045 ft | 405 kts | 308° |
| 2026-05-08 16:14 | 48.83548 | 3.66957 | 36038 ft | 406 kts | 308° |
| 2026-05-08 16:15 | 48.87163 | 3.60379 | 36047 ft | 406 kts | 308° |
| 2026-05-08 16:15 | 48.90784 | 3.53781 | 36044 ft | 406 kts | 308° |
| 2026-05-08 16:16 | 48.94374 | 3.47224 | 36040 ft | 405 kts | 308° |
| 2026-05-08 16:16 | 48.97969 | 3.40642 | 36045 ft | 404 kts | 308° |
| 2026-05-08 16:17 | 49.00973 | 3.35129 | 36038 ft | 404 kts | 308° |
| 2026-05-08 16:17 | 49.05136 | 3.27469 | 36052 ft | 403 kts | 308° |
| 2026-05-08 16:18 | 49.08711 | 3.20874 | 36041 ft | 403 kts | 308° |
| 2026-05-08 16:18 | 49.12274 | 3.14284 | 36046 ft | 402 kts | 308° |
| 2026-05-08 16:19 | 49.15827 | 3.07697 | 36036 ft | 401 kts | 308° |
| 2026-05-08 16:19 | 49.19371 | 3.01110 | 36048 ft | 401 kts | 308° |
| 2026-05-08 16:20 | 49.22850 | 2.94628 | 36042 ft | 401 kts | 308° |
| 2026-05-08 16:20 | 49.26383 | 2.88028 | 36046 ft | 400 kts | 308° |
| 2026-05-08 16:21 | 49.29887 | 2.81467 | 36053 ft | 401 kts | 308° |
| 2026-05-08 16:21 | 49.33416 | 2.74843 | 36051 ft | 402 kts | 308° |
| 2026-05-08 16:22 | 49.36962 | 2.68218 | 36048 ft | 402 kts | 309° |
| 2026-05-08 16:22 | 49.40537 | 2.61607 | 36046 ft | 402 kts | 309° |
| 2026-05-08 16:23 | 49.44103 | 2.54996 | 36041 ft | 402 kts | 309° |
| 2026-05-08 16:23 | 49.47666 | 2.48367 | 36051 ft | 402 kts | 309° |
| 2026-05-08 16:24 | 49.51224 | 2.41723 | 36063 ft | 403 kts | 309° |
| 2026-05-08 16:24 | 49.54789 | 2.35048 | 36054 ft | 403 kts | 309° |
| 2026-05-08 16:25 | 49.58348 | 2.28368 | 36050 ft | 404 kts | 309° |
| 2026-05-08 16:25 | 49.61909 | 2.21667 | 36037 ft | 404 kts | 309° |
| 2026-05-08 16:26 | 49.65465 | 2.14959 | 36046 ft | 404 kts | 309° |
| 2026-05-08 16:26 | 49.69016 | 2.08243 | 36043 ft | 404 kts | 308° |
| 2026-05-08 16:27 | 49.72541 | 2.01559 | 36052 ft | 403 kts | 308° |
| 2026-05-08 16:27 | 49.76034 | 1.94919 | 36057 ft | 404 kts | 308° |
| 2026-05-08 16:28 | 49.79576 | 1.88169 | 36052 ft | 404 kts | 308° |
| 2026-05-08 16:28 | 49.83112 | 1.81412 | 36056 ft | 403 kts | 308° |
| 2026-05-08 16:29 | 49.86637 | 1.74659 | 36052 ft | 403 kts | 308° |
| 2026-05-08 16:29 | 49.90157 | 1.67898 | 36051 ft | 403 kts | 308° |
| 2026-05-08 16:30 | 49.93649 | 1.61174 | 36055 ft | 402 kts | 308° |
| 2026-05-08 16:30 | 49.97113 | 1.54489 | 35694 ft | 393 kts | 308° |
| 2026-05-08 16:31 | 49.98869 | 1.51280 | 35439 ft | 384 kts | 314° |
| 2026-05-08 16:31 | 50.00824 | 1.48495 | 35033 ft | 382 kts | 318° |
| 2026-05-08 16:31 | 50.02824 | 1.45807 | 34734 ft | 376 kts | 318° |
| 2026-05-08 16:31 | 50.04800 | 1.43167 | 34326 ft | 374 kts | 318° |
| 2026-05-08 16:32 | 50.06763 | 1.40533 | 33955 ft | 371 kts | 318° |
| 2026-05-08 16:32 | 50.08703 | 1.37917 | 33546 ft | 367 kts | 318° |
| 2026-05-08 16:32 | 50.10621 | 1.35317 | 33148 ft | 364 kts | 317° |
| 2026-05-08 16:32 | 50.12516 | 1.32738 | 32816 ft | 359 kts | 317° |
| 2026-05-08 16:33 | 50.14392 | 1.30177 | 32406 ft | 357 kts | 317° |
| 2026-05-08 16:33 | 50.16245 | 1.27643 | 32112 ft | 352 kts | 317° |
| 2026-05-08 16:33 | 50.18082 | 1.25127 | 31702 ft | 351 kts | 317° |
| 2026-05-08 16:33 | 50.19907 | 1.22625 | 31387 ft | 347 kts | 317° |
| 2026-05-08 16:34 | 50.21713 | 1.20145 | 31023 ft | 345 kts | 317° |
| 2026-05-08 16:34 | 50.23508 | 1.17678 | 30683 ft | 342 kts | 317° |
| 2026-05-08 16:34 | 50.25290 | 1.15227 | 30354 ft | 340 kts | 317° |
| 2026-05-08 16:34 | 50.27058 | 1.12794 | 29987 ft | 338 kts | 317° |
| 2026-05-08 16:35 | 50.28818 | 1.10368 | 29599 ft | 335 kts | 317° |
| 2026-05-08 16:35 | 50.30555 | 1.07971 | 29269 ft | 331 kts | 317° |
| 2026-05-08 16:35 | 50.32271 | 1.05601 | 28899 ft | 328 kts | 317° |
| 2026-05-08 16:35 | 50.33954 | 1.03275 | 28573 ft | 324 kts | 317° |
| 2026-05-08 16:36 | 50.35631 | 1.00953 | 28259 ft | 321 kts | 317° |
| 2026-05-08 16:36 | 50.37249 | 0.98712 | 27882 ft | 319 kts | 318° |
| 2026-05-08 16:36 | 50.38897 | 0.96428 | 27620 ft | 315 kts | 318° |
| 2026-05-08 16:36 | 50.40543 | 0.94144 | 27214 ft | 316 kts | 318° |
| 2026-05-08 16:37 | 50.42163 | 0.91895 | 26915 ft | 316 kts | 317° |
| 2026-05-08 16:37 | 50.43714 | 0.89330 | 26505 ft | 328 kts | 305° |
| 2026-05-08 16:37 | 50.44923 | 0.86233 | 26143 ft | 338 kts | 297° |
| 2026-05-08 16:37 | 50.45749 | 0.82733 | 25638 ft | 342 kts | 287° |
| 2026-05-08 16:38 | 50.46374 | 0.79203 | 25226 ft | 341 kts | 287° |
| 2026-05-08 16:38 | 50.47014 | 0.75578 | 24933 ft | 337 kts | 287° |
| 2026-05-08 16:38 | 50.47644 | 0.72093 | 24548 ft | 336 kts | 287° |
| 2026-05-08 16:38 | 50.48288 | 0.68578 | 24227 ft | 334 kts | 287° |
| 2026-05-08 16:39 | 50.48916 | 0.65074 | 23864 ft | 333 kts | 285° |
| 2026-05-08 16:39 | 50.49357 | 0.61488 | 23350 ft | 336 kts | 280° |
| 2026-05-08 16:39 | 50.49689 | 0.57880 | 23023 ft | 332 kts | 279° |
| 2026-05-08 16:39 | 50.49994 | 0.54288 | 22614 ft | 331 kts | 279° |
| 2026-05-08 16:40 | 50.50200 | 0.51871 | 22391 ft | 329 kts | 279° |
| 2026-05-08 16:40 | 50.50508 | 0.48327 | 22050 ft | 326 kts | 279° |
| 2026-05-08 16:40 | 50.50822 | 0.44811 | 21700 ft | 324 kts | 278° |
| 2026-05-08 16:40 | 50.51139 | 0.41317 | 21376 ft | 321 kts | 278° |
| 2026-05-08 16:41 | 50.51452 | 0.37902 | 21059 ft | 319 kts | 278° |
| 2026-05-08 16:41 | 50.51770 | 0.34457 | 20724 ft | 317 kts | 278° |
| 2026-05-08 16:41 | 50.52089 | 0.31017 | 20406 ft | 315 kts | 278° |
| 2026-05-08 16:42 | 50.52715 | 0.24234 | 19761 ft | 313 kts | 277° |
| 2026-05-08 16:42 | 50.53027 | 0.20856 | 19442 ft | 311 kts | 277° |
| 2026-05-08 16:42 | 50.53336 | 0.17492 | 19121 ft | 310 kts | 277° |
| 2026-05-08 16:42 | 50.53642 | 0.14139 | 18806 ft | 310 kts | 277° |
| 2026-05-08 16:43 | 50.53948 | 0.10785 | 18459 ft | 310 kts | 276° |
| 2026-05-08 16:43 | 50.54253 | 0.07436 | 18111 ft | 309 kts | 276° |
| 2026-05-08 16:43 | 50.54557 | 0.04087 | 17768 ft | 308 kts | 276° |
| 2026-05-08 16:43 | 50.54858 | 0.00757 | 17430 ft | 307 kts | 277° |
| 2026-05-08 16:44 | 50.55144 | -0.02419 | 17124 ft | 305 kts | 276° |
| 2026-05-08 16:44 | 50.55443 | -0.05753 | 16805 ft | 303 kts | 276° |
| 2026-05-08 16:44 | 50.55734 | -0.08991 | 16495 ft | 302 kts | 276° |
| 2026-05-08 16:44 | 50.56025 | -0.12250 | 16163 ft | 300 kts | 276° |
| 2026-05-08 16:45 | 50.56314 | -0.15496 | 15881 ft | 298 kts | 276° |
| 2026-05-08 16:45 | 50.56599 | -0.18717 | 15576 ft | 297 kts | 276° |
| 2026-05-08 16:45 | 50.56883 | -0.21926 | 15268 ft | 295 kts | 276° |
| 2026-05-08 16:45 | 50.57165 | -0.25119 | 14965 ft | 294 kts | 275° |
| 2026-05-08 16:46 | 50.57444 | -0.28293 | 14656 ft | 293 kts | 276° |
| 2026-05-08 16:46 | 50.57721 | -0.31458 | 14347 ft | 292 kts | 276° |
| 2026-05-08 16:46 | 50.57997 | -0.34618 | 14046 ft | 291 kts | 276° |
| 2026-05-08 16:46 | 50.58271 | -0.37769 | 13718 ft | 290 kts | 276° |
| 2026-05-08 16:47 | 50.58635 | -0.40888 | 13315 ft | 292 kts | 289° |
| 2026-05-08 16:47 | 50.59718 | -0.43600 | 13016 ft | 292 kts | 310° |
| 2026-05-08 16:47 | 50.61101 | -0.45866 | 12695 ft | 291 kts | 313° |
| 2026-05-08 16:47 | 50.62562 | -0.48088 | 12376 ft | 290 kts | 314° |
| 2026-05-08 16:48 | 50.64005 | -0.50299 | 12065 ft | 289 kts | 314° |
| 2026-05-08 16:48 | 50.65430 | -0.52519 | 11768 ft | 287 kts | 313° |
| 2026-05-08 16:48 | 50.66841 | -0.54737 | 11479 ft | 285 kts | 312° |
| 2026-05-08 16:48 | 50.68232 | -0.56955 | 11187 ft | 283 kts | 309° |
| 2026-05-08 16:49 | 50.69194 | -0.59600 | 10866 ft | 276 kts | 284° |
| 2026-05-08 16:49 | 50.69749 | -0.62451 | 10663 ft | 271 kts | 284° |
| 2026-05-08 16:49 | 50.70316 | -0.65314 | 10338 ft | 272 kts | 284° |
| 2026-05-08 16:49 | 50.70881 | -0.68137 | 10161 ft | 267 kts | 284° |
| 2026-05-08 16:50 | 50.71437 | -0.70895 | 9967 ft | 263 kts | 284° |
| 2026-05-08 16:50 | 50.71992 | -0.73643 | 9661 ft | 262 kts | 285° |
| 2026-05-08 16:50 | 50.72543 | -0.76372 | 9385 ft | 260 kts | 284° |
| 2026-05-08 16:50 | 50.73091 | -0.79090 | 9139 ft | 261 kts | 285° |
| 2026-05-08 16:51 | 50.73641 | -0.81818 | 9111 ft | 262 kts | 285° |
| 2026-05-08 16:51 | 50.74197 | -0.84595 | 9071 ft | 268 kts | 285° |
| 2026-05-08 16:51 | 50.74761 | -0.87396 | 9084 ft | 269 kts | 284° |
| 2026-05-08 16:51 | 50.75330 | -0.90234 | 9071 ft | 272 kts | 284° |
| 2026-05-08 16:52 | 50.75900 | -0.93069 | 9062 ft | 270 kts | 285° |
| 2026-05-08 16:52 | 50.76459 | -0.95861 | 9058 ft | 270 kts | 285° |
| 2026-05-08 16:52 | 50.77023 | -0.98683 | 9067 ft | 269 kts | 285° |
| 2026-05-08 16:52 | 50.77565 | -1.01404 | 9079 ft | 269 kts | 284° |
| 2026-05-08 16:53 | 50.77767 | -1.07218 | 9102 ft | 266 kts | 264° |
| 2026-05-08 16:53 | 50.77706 | -1.10166 | 9073 ft | 269 kts | 266° |
| 2026-05-08 16:53 | 50.77662 | -1.13127 | 9080 ft | 270 kts | 266° |
| 2026-05-08 16:54 | 50.77624 | -1.16099 | 9073 ft | 271 kts | 266° |
| 2026-05-08 16:54 | 50.77589 | -1.19078 | 9072 ft | 271 kts | 266° |
| 2026-05-08 16:54 | 50.77560 | -1.22048 | 9065 ft | 271 kts | 269° |
| 2026-05-08 16:54 | 50.78047 | -1.24936 | 9054 ft | 277 kts | 299° |
| 2026-05-08 16:55 | 50.79379 | -1.27137 | 9073 ft | 281 kts | 326° |
| 2026-05-08 16:55 | 50.81159 | -1.28312 | 9116 ft | 282 kts | 343° |
| 2026-05-08 16:55 | 50.83062 | -1.29116 | 9073 ft | 284 kts | 344° |
| 2026-05-08 16:55 | 50.84974 | -1.29912 | 9083 ft | 284 kts | 344° |
| 2026-05-08 16:56 | 50.86881 | -1.30724 | 9085 ft | 283 kts | 343° |
| 2026-05-08 16:56 | 50.88774 | -1.31543 | 9073 ft | 279 kts | 343° |
| 2026-05-08 16:56 | 50.90627 | -1.32351 | 9059 ft | 269 kts | 342° |
| 2026-05-08 16:56 | 50.92225 | -1.33611 | 9049 ft | 246 kts | 314° |
| 2026-05-08 16:57 | 50.93133 | -1.35699 | 9078 ft | 219 kts | 287° |
| 2026-05-08 16:57 | 50.93440 | -1.37959 | 8891 ft | 207 kts | 269° |
| 2026-05-08 16:57 | 50.93331 | -1.40170 | 8694 ft | 198 kts | 253° |
| 2026-05-08 16:57 | 50.92823 | -1.42170 | 8543 ft | 194 kts | 239° |
| 2026-05-08 16:58 | 50.92167 | -1.44058 | 8393 ft | 197 kts | 237° |
| 2026-05-08 16:58 | 50.91482 | -1.45970 | 8213 ft | 200 kts | 237° |
| 2026-05-08 16:58 | 50.90790 | -1.47898 | 8045 ft | 203 kts | 239° |
| 2026-05-08 16:58 | 50.90093 | -1.49847 | 7865 ft | 203 kts | 238° |
| 2026-05-08 16:59 | 50.89401 | -1.51778 | 7688 ft | 205 kts | 238° |
| 2026-05-08 16:59 | 50.88694 | -1.53755 | 7510 ft | 207 kts | 238° |
| 2026-05-08 16:59 | 50.87995 | -1.55711 | 7342 ft | 200 kts | 239° |
| 2026-05-08 16:59 | 50.87324 | -1.57594 | 7136 ft | 193 kts | 238° |
| 2026-05-08 17:00 | 50.86673 | -1.59411 | 6971 ft | 186 kts | 238° |
| 2026-05-08 17:00 | 50.86049 | -1.61165 | 6791 ft | 181 kts | 238° |
| 2026-05-08 17:00 | 50.85431 | -1.62892 | 6622 ft | 180 kts | 237° |
| 2026-05-08 17:00 | 50.84817 | -1.64607 | 6462 ft | 179 kts | 237° |
| 2026-05-08 17:01 | 50.84202 | -1.66323 | 6294 ft | 179 kts | 239° |
| 2026-05-08 17:01 | 50.83599 | -1.68012 | 6143 ft | 178 kts | 237° |
| 2026-05-08 17:01 | 50.82976 | -1.69748 | 5979 ft | 179 kts | 238° |
| 2026-05-08 17:01 | 50.82369 | -1.71441 | 5811 ft | 180 kts | 238° |
| 2026-05-08 17:02 | 50.81744 | -1.73184 | 5670 ft | 180 kts | 239° |
| 2026-05-08 17:02 | 50.81133 | -1.74888 | 5524 ft | 181 kts | 238° |
| 2026-05-08 17:02 | 50.80510 | -1.76625 | 5351 ft | 182 kts | 237° |
| 2026-05-08 17:02 | 50.79883 | -1.78366 | 5200 ft | 182 kts | 238° |
| 2026-05-08 17:03 | 50.79264 | -1.80088 | 5040 ft | 181 kts | 237° |
| 2026-05-08 17:03 | 50.78640 | -1.81818 | 4874 ft | 179 kts | 237° |
| 2026-05-08 17:03 | 50.78030 | -1.83533 | 4719 ft | 179 kts | 241° |
| 2026-05-08 17:03 | 50.77837 | -1.85468 | 4545 ft | 180 kts | 275° |
| 2026-05-08 17:04 | 50.77964 | -1.87420 | 4431 ft | 182 kts | 271° |
| 2026-05-08 17:04 | 50.78056 | -1.89439 | 4266 ft | 186 kts | 270° |
| 2026-05-08 17:04 | 50.78152 | -1.91473 | 4103 ft | 187 kts | 270° |
| 2026-05-08 17:04 | 50.78251 | -1.93512 | 3955 ft | 186 kts | 270° |
| 2026-05-08 17:05 | 50.78348 | -1.95554 | 3778 ft | 187 kts | 272° |
| 2026-05-08 17:05 | 50.78448 | -1.97597 | 3609 ft | 187 kts | 272° |
| 2026-05-08 17:05 | 50.78553 | -1.99647 | 3451 ft | 187 kts | 271° |
| 2026-05-08 17:05 | 50.78650 | -2.01632 | 3265 ft | 186 kts | 272° |
| 2026-05-08 17:06 | 50.78752 | -2.03650 | 3139 ft | 184 kts | 271° |
| 2026-05-08 17:06 | 50.78799 | -2.05679 | 2933 ft | 184 kts | 258° |
| 2026-05-08 17:06 | 50.78271 | -2.07402 | 2805 ft | 172 kts | 221° |
| 2026-05-08 17:06 | 50.77255 | -2.08303 | 2654 ft | 167 kts | 187° |
| 2026-05-08 17:07 | 50.76120 | -2.08237 | 2512 ft | 165 kts | 161° |
| 2026-05-08 17:07 | 50.75202 | -2.07265 | 2371 ft | 162 kts | 127° |
| 2026-05-08 17:07 | 50.74966 | -2.05517 | 2245 ft | 164 kts | 91° |
| 2026-05-08 17:07 | 50.74974 | -2.03696 | 2055 ft | 172 kts | 89° |
| 2026-05-08 17:08 | 50.75143 | -2.01856 | 1908 ft | 167 kts | 85° |
| 2026-05-08 17:08 | 50.75386 | -2.00120 | 1794 ft | 150 kts | 82° |
| 2026-05-08 17:08 | 50.75631 | -1.98610 | 1686 ft | 142 kts | 82° |
| 2026-05-08 17:08 | 50.75879 | -1.97098 | 1534 ft | 141 kts | 81° |
| 2026-05-08 17:09 | 50.76126 | -1.95599 | 1409 ft | 140 kts | 80° |
| 2026-05-08 17:09 | 50.76369 | -1.94129 | 1238 ft | 136 kts | 81° |
| 2026-05-08 17:09 | 50.76611 | -1.92672 | 1093 ft | 139 kts | 82° |
| 2026-05-08 17:09 | 50.76862 | -1.91148 | 846 ft | 141 kts | 79° |
| 2026-05-08 17:10 | 50.77109 | -1.89674 | 668 ft | 139 kts | 79° |
| 2026-05-08 17:10 | 50.77359 | -1.88195 | 454 ft | 139 kts | 77° |
| 2026-05-08 17:10 | 50.77601 | -1.86742 | 268 ft | 135 kts | 78° |
| 2026-05-08 17:10 | 50.77831 | -1.85331 | 97 ft | 129 kts | 75° |
| 2026-05-08 17:11 | 50.78045 | -1.84032 | 41 ft | 111 kts | 76° |
| 2026-05-08 17:11 | 50.78213 | -1.83022 | 42 ft | 55 kts | 75° |
| 2026-05-08 17:11 | 50.78212 | -1.82759 | 41 ft | 3 kts | 143° |
| 2026-05-08 17:11 | 50.78179 | -1.82758 | 38 ft | 7 kts | 211° |
| 2026-05-08 17:12 | 50.78140 | -1.82828 | 37 ft | 11 kts | 238° |
| 2026-05-08 17:12 | 50.78117 | -1.82947 | 39 ft | 12 kts | 267° |
| 2026-05-08 17:12 | 50.78113 | -1.83088 | 40 ft | 14 kts | 258° |
| 2026-05-08 17:12 | 50.78062 | -1.83232 | 40 ft | 16 kts | 238° |
| 2026-05-08 17:13 | 50.78015 | -1.83380 | 42 ft | 12 kts | 246° |
| 2026-05-08 17:13 | 50.77953 | -1.83484 | 39 ft | 15 kts | 203° |
| 2026-05-08 17:13 | 50.77860 | -1.83489 | 41 ft | 10 kts | 166° |
| 2026-05-08 17:13 | 50.77844 | -1.83421 | 41 ft | 8 kts | 88° |
| 2026-05-08 17:14 | 50.77846 | -1.83374 | 41 ft | 0 kts | 86° |